createdAt,value
2023-05-16T00:00:36.196Z,25.78
2023-05-16T00:03:05.353Z,25.77
2023-05-16T00:05:32.042Z,25.70
2023-05-16T00:07:58.610Z,25.80
2023-05-16T00:10:26.268Z,25.72
2023-05-16T00:12:53.578Z,25.73
2023-05-16T00:15:20.392Z,25.76
2023-05-16T00:17:47.339Z,25.76
2023-05-16T00:20:14.147Z,25.74
2023-05-16T00:22:41.089Z,25.73
2023-05-16T00:25:09.437Z,25.66
2023-05-16T00:27:36.061Z,25.79
2023-05-16T00:30:03.522Z,25.79
2023-05-16T00:32:30.213Z,25.75
2023-05-16T00:34:56.827Z,25.71
2023-05-16T00:37:23.473Z,25.72
2023-05-16T00:39:50.050Z,25.73
2023-05-16T00:42:19.213Z,25.76
2023-05-16T00:44:46.105Z,25.73
2023-05-16T00:47:12.962Z,25.68
2023-05-16T00:49:39.569Z,25.70
2023-05-16T00:52:06.426Z,25.72
2023-05-16T00:54:33.013Z,25.71
2023-05-16T00:56:59.600Z,25.73
2023-05-16T00:59:26.387Z,25.73
2023-05-16T01:01:53.071Z,25.71
2023-05-16T01:04:20.538Z,25.73
2023-05-16T01:06:47.203Z,25.71
2023-05-16T01:09:13.826Z,25.66
2023-05-16T01:11:47.296Z,25.67
2023-05-16T01:14:16.869Z,25.67
2023-05-16T01:16:49.066Z,25.68
2023-05-16T01:19:29.751Z,25.65
2023-05-16T01:21:57.738Z,25.65
2023-05-16T01:24:33.577Z,25.66
2023-05-16T01:27:00.214Z,25.63
2023-05-16T01:29:26.783Z,25.71
2023-05-16T01:31:53.531Z,25.68
2023-05-16T01:34:20.384Z,25.65
2023-05-16T01:37:01.023Z,25.69
2023-05-16T01:39:33.802Z,25.67
2023-05-16T01:42:14.202Z,25.61
2023-05-16T01:44:50.481Z,25.64
2023-05-16T01:47:17.728Z,25.66
2023-05-16T01:49:57.240Z,25.67
2023-05-16T01:52:28.820Z,25.63
2023-05-16T01:54:55.761Z,25.58
2023-05-16T01:57:24.705Z,25.65
2023-05-16T01:59:51.295Z,25.60
2023-05-16T02:02:19.268Z,25.59
2023-05-16T02:04:46.402Z,25.60
2023-05-16T02:07:15.283Z,25.60
2023-05-16T02:09:41.837Z,25.60
2023-05-16T02:12:08.388Z,25.62
2023-05-16T02:14:34.942Z,25.59
2023-05-16T02:17:01.747Z,25.60
2023-05-16T02:19:28.418Z,25.59
2023-05-16T02:21:54.973Z,25.54
2023-05-16T02:24:21.533Z,25.52
2023-05-16T02:26:48.168Z,25.56
2023-05-16T02:29:16.489Z,25.51
2023-05-16T02:31:43.288Z,25.54
2023-05-16T02:34:10.907Z,25.44
2023-05-16T02:36:37.577Z,25.56
2023-05-16T02:39:04.287Z,25.57
2023-05-16T02:41:31.770Z,25.57
2023-05-16T02:43:58.620Z,25.56
2023-05-16T02:46:32.440Z,25.56
2023-05-16T02:48:59.142Z,25.55
2023-05-16T02:51:26.941Z,25.56
2023-05-16T02:53:53.765Z,25.55
2023-05-16T02:56:21.664Z,25.58
2023-05-16T02:58:50.669Z,25.57
2023-05-16T03:01:17.983Z,25.53
2023-05-16T03:03:44.984Z,25.57
2023-05-16T03:06:11.662Z,25.56
2023-05-16T03:08:38.260Z,25.56
2023-05-16T03:11:04.851Z,25.57
2023-05-16T03:13:31.768Z,25.58
2023-05-16T03:15:58.876Z,25.57
2023-05-16T03:18:25.733Z,25.53
2023-05-16T03:20:53.002Z,25.55
2023-05-16T03:23:20.669Z,25.54
2023-05-16T03:25:47.541Z,25.50
2023-05-16T03:28:15.331Z,25.51
2023-05-16T03:30:42.256Z,25.63
2023-05-16T03:33:09.017Z,25.55
2023-05-16T03:35:35.921Z,25.66
2023-05-16T03:38:02.958Z,25.61
2023-05-16T03:40:29.614Z,25.56
2023-05-16T03:42:56.196Z,25.57
2023-05-16T03:45:22.808Z,25.54
2023-05-16T03:47:49.906Z,25.56
2023-05-16T03:50:17.204Z,25.56
2023-05-16T03:52:44.024Z,25.55
2023-05-16T03:55:10.719Z,25.58
2023-05-16T03:57:38.413Z,25.60
2023-05-16T04:00:08.222Z,25.62
2023-05-16T04:02:41.717Z,25.57
2023-05-16T04:05:09.442Z,25.58
2023-05-16T04:07:36.757Z,25.56
2023-05-16T04:10:04.156Z,25.54
2023-05-16T04:12:30.713Z,25.51
2023-05-16T04:14:57.451Z,25.50
2023-05-16T04:17:24.066Z,25.51
2023-05-16T04:19:50.655Z,25.56
2023-05-16T04:22:17.217Z,25.57
2023-05-16T04:24:43.773Z,25.53
2023-05-16T04:27:10.383Z,25.51
2023-05-16T04:29:36.927Z,25.54
2023-05-16T04:32:03.756Z,25.58
2023-05-16T04:34:30.647Z,25.63
2023-05-16T04:36:57.791Z,25.63
2023-05-16T04:39:24.433Z,25.59
2023-05-16T04:41:51.568Z,25.58
2023-05-16T04:44:19.919Z,25.56
2023-05-16T04:46:46.557Z,25.60
2023-05-16T04:49:13.189Z,25.58
2023-05-16T04:51:39.769Z,25.57
2023-05-16T04:54:06.414Z,25.57
2023-05-16T04:56:32.960Z,25.52
2023-05-16T04:58:59.546Z,25.58
2023-05-16T05:01:26.248Z,25.59
2023-05-16T05:03:53.020Z,25.64
2023-05-16T05:06:19.576Z,25.62
2023-05-16T05:08:46.169Z,25.58
2023-05-16T05:11:12.801Z,25.61
2023-05-16T05:13:39.417Z,25.61
2023-05-16T05:16:06.799Z,25.59
2023-05-16T05:18:33.455Z,25.63
2023-05-16T05:21:00.196Z,25.61
2023-05-16T05:23:26.901Z,25.61
2023-05-16T05:25:53.916Z,25.61
2023-05-16T05:28:20.643Z,25.65
2023-05-16T05:30:48.374Z,25.66
2023-05-16T05:33:21.122Z,25.64
2023-05-16T05:35:47.877Z,25.72
2023-05-16T05:38:14.464Z,25.74
2023-05-16T05:40:41.000Z,25.73
2023-05-16T05:43:07.664Z,25.70
2023-05-16T05:45:34.303Z,25.73
2023-05-16T05:48:01.346Z,25.68
2023-05-16T05:50:28.100Z,25.71
2023-05-16T05:52:55.404Z,25.61
2023-05-16T05:55:22.026Z,25.72
2023-05-16T05:57:48.594Z,25.77
2023-05-16T06:00:15.403Z,25.75
2023-05-16T06:02:42.234Z,25.73
2023-05-16T06:05:09.329Z,25.72
2023-05-16T06:07:36.031Z,25.79
2023-05-16T06:10:05.226Z,25.77
2023-05-16T06:12:32.069Z,25.73
2023-05-16T06:14:58.698Z,25.78
2023-05-16T06:17:25.565Z,25.80
2023-05-16T06:19:52.242Z,25.80
2023-05-16T06:22:18.965Z,25.76
2023-05-16T06:24:45.889Z,25.81
2023-05-16T06:27:12.478Z,25.83
2023-05-16T06:29:39.211Z,25.83
2023-05-16T06:32:06.109Z,25.83
2023-05-16T06:34:32.730Z,25.87
2023-05-16T06:36:59.937Z,25.86
2023-05-16T06:39:26.619Z,25.83
2023-05-16T06:41:56.229Z,25.83
2023-05-16T06:44:23.585Z,25.85
2023-05-16T06:46:50.452Z,25.81
2023-05-16T06:49:17.229Z,25.82
2023-05-16T06:51:43.884Z,25.84
2023-05-16T06:54:10.782Z,25.87
2023-05-16T06:56:37.675Z,25.89
2023-05-16T06:59:04.341Z,25.90
2023-05-16T07:01:31.045Z,25.88
2023-05-16T07:03:57.782Z,25.91
2023-05-16T07:06:24.629Z,25.91
2023-05-16T07:08:51.446Z,25.93
2023-05-16T07:11:18.119Z,25.90
2023-05-16T07:13:44.834Z,25.89
2023-05-16T07:16:11.645Z,25.86
2023-05-16T07:18:38.481Z,25.86
2023-05-16T07:21:05.877Z,25.75
2023-05-16T07:23:32.509Z,25.86
2023-05-16T07:25:59.453Z,25.83
2023-05-16T07:28:26.290Z,25.84
2023-05-16T07:30:52.993Z,25.79
2023-05-16T07:33:19.694Z,25.84
2023-05-16T07:35:46.451Z,25.81
2023-05-16T07:38:13.361Z,25.87
2023-05-16T07:40:40.037Z,25.84
2023-05-16T07:43:06.672Z,25.85
2023-05-16T07:45:33.419Z,25.88
2023-05-16T07:48:00.389Z,25.86
2023-05-16T07:50:27.334Z,25.88
2023-05-16T07:52:54.055Z,25.89
2023-05-16T07:55:22.179Z,25.92
2023-05-16T07:57:49.378Z,25.92
2023-05-16T08:00:16.970Z,25.92
2023-05-16T08:02:43.731Z,25.89
2023-05-16T08:05:10.700Z,25.88
2023-05-16T08:07:37.645Z,25.88
2023-05-16T08:10:04.829Z,25.83
2023-05-16T08:12:31.544Z,25.80
2023-05-16T08:14:58.197Z,25.72
2023-05-16T08:17:24.902Z,25.71
2023-05-16T08:19:51.595Z,25.67
2023-05-16T08:22:18.319Z,25.63
2023-05-16T08:24:45.004Z,25.61
2023-05-16T08:27:12.300Z,25.54
2023-05-16T08:29:38.935Z,25.55
2023-05-16T08:32:05.767Z,25.56
2023-05-16T08:34:32.665Z,25.50
2023-05-16T08:37:02.475Z,25.58
2023-05-16T08:39:30.779Z,25.58
2023-05-16T08:41:58.911Z,25.59
2023-05-16T08:44:25.808Z,25.53
2023-05-16T08:46:53.078Z,25.64
2023-05-16T08:49:20.191Z,25.63
2023-05-16T08:51:47.562Z,25.70
2023-05-16T08:54:15.182Z,25.70
2023-05-16T08:56:42.239Z,25.65
2023-05-16T08:59:08.956Z,25.60
2023-05-16T09:01:35.992Z,25.61
2023-05-16T09:04:02.936Z,25.60
2023-05-16T09:06:29.777Z,25.60
2023-05-16T09:08:57.578Z,25.54
2023-05-16T09:11:24.412Z,25.56
2023-05-16T09:13:51.278Z,25.56
2023-05-16T09:16:21.201Z,25.54
2023-05-16T09:18:56.814Z,25.56
2023-05-16T09:21:27.634Z,25.55
2023-05-16T09:23:54.306Z,25.57
2023-05-16T09:26:21.962Z,25.55
2023-05-16T09:28:48.643Z,25.60
2023-05-16T09:31:30.621Z,25.62
2023-05-16T09:33:57.373Z,25.66
2023-05-16T09:36:24.102Z,25.63
2023-05-16T09:38:51.665Z,25.64
2023-05-16T09:41:18.375Z,25.63
2023-05-16T09:43:45.222Z,25.64
2023-05-16T09:46:15.496Z,25.64
2023-05-16T09:48:46.227Z,25.72
2023-05-16T09:51:13.195Z,25.74
2023-05-16T09:53:40.618Z,25.74
2023-05-16T09:56:14.507Z,25.74
2023-05-16T09:58:42.321Z,25.70
2023-05-16T10:01:09.538Z,25.73
2023-05-16T10:03:37.494Z,25.66
2023-05-16T10:06:05.848Z,25.57
2023-05-16T10:08:36.406Z,25.78
2023-05-16T10:11:06.401Z,25.81
2023-05-16T10:13:34.555Z,25.78
2023-05-16T10:16:04.102Z,25.77
2023-05-16T10:18:31.567Z,25.75
2023-05-16T10:21:21.069Z,25.74
2023-05-16T10:23:48.535Z,25.72
2023-05-16T10:26:16.342Z,25.72
2023-05-16T10:28:43.093Z,25.75
2023-05-16T10:31:10.471Z,25.77
2023-05-16T10:33:37.239Z,25.77
2023-05-16T10:36:05.599Z,25.78
2023-05-16T10:38:32.349Z,25.79
2023-05-16T10:40:58.994Z,25.69
2023-05-16T10:43:26.963Z,25.76
2023-05-16T10:45:57.980Z,25.79
2023-05-16T10:48:31.591Z,25.85
2023-05-16T10:50:58.296Z,25.76
2023-05-16T10:53:34.501Z,25.91
2023-05-16T10:56:01.386Z,25.93
2023-05-16T10:58:38.578Z,25.91
2023-05-16T11:01:30.388Z,25.97
2023-05-16T11:03:57.182Z,25.86
2023-05-16T11:06:27.547Z,25.89
2023-05-16T11:09:13.340Z,25.92
2023-05-16T11:11:52.085Z,25.90
2023-05-16T11:14:22.983Z,25.94
2023-05-16T11:17:13.867Z,25.90
2023-05-16T11:19:55.970Z,25.82
2023-05-16T11:22:24.201Z,25.75
2023-05-16T11:24:57.231Z,25.68
2023-05-16T11:27:25.919Z,25.70
2023-05-16T11:29:53.269Z,25.70
2023-05-16T11:32:21.715Z,25.73
2023-05-16T11:34:48.669Z,25.68
2023-05-16T11:37:16.129Z,25.65
2023-05-16T11:39:42.938Z,25.59
2023-05-16T11:42:09.592Z,25.59
2023-05-16T11:44:36.335Z,25.62
2023-05-16T11:47:03.152Z,25.62
2023-05-16T11:49:30.378Z,25.60
2023-05-16T11:51:57.750Z,25.61
2023-05-16T11:54:24.435Z,25.68
2023-05-16T11:56:51.433Z,25.72
2023-05-16T11:59:18.450Z,25.66
2023-05-16T12:01:45.238Z,25.75
2023-05-16T12:04:12.796Z,25.71
2023-05-16T12:06:40.043Z,25.72
2023-05-16T12:09:14.350Z,25.72
2023-05-16T12:11:45.352Z,25.76
2023-05-16T12:14:12.869Z,25.74
2023-05-16T12:16:42.205Z,25.75
2023-05-16T12:19:09.210Z,25.68
2023-05-16T12:21:36.238Z,25.76
2023-05-16T12:24:02.930Z,25.77
2023-05-16T12:26:31.143Z,25.76
2023-05-16T12:29:00.784Z,25.80
2023-05-16T12:31:32.147Z,25.75
2023-05-16T12:33:59.161Z,25.80
2023-05-16T12:36:26.494Z,25.82
2023-05-16T12:38:53.495Z,25.81
2023-05-16T12:41:23.448Z,25.92
2023-05-16T12:43:50.343Z,25.93
2023-05-16T12:46:17.753Z,25.93
2023-05-16T12:48:44.515Z,25.94
2023-05-16T12:51:13.236Z,25.90
2023-05-16T12:53:47.372Z,25.86
2023-05-16T12:56:21.672Z,25.94
2023-05-16T12:58:51.474Z,25.91
2023-05-16T13:01:18.293Z,25.91
2023-05-16T13:03:44.983Z,25.95
2023-05-16T13:06:11.866Z,25.97
2023-05-16T13:08:38.641Z,25.87
2023-05-16T13:11:05.342Z,25.96
2023-05-16T13:13:36.366Z,25.93
2023-05-16T13:16:04.314Z,25.99
2023-05-16T13:18:31.577Z,25.97
2023-05-16T13:20:58.350Z,25.94
2023-05-16T13:23:24.959Z,25.95
2023-05-16T13:25:53.040Z,25.94
2023-05-16T13:28:19.837Z,25.90
2023-05-16T13:30:46.840Z,25.83
2023-05-16T13:33:13.718Z,25.79
2023-05-16T13:35:40.587Z,25.73
2023-05-16T13:38:07.297Z,25.75
2023-05-16T13:40:34.051Z,25.70
2023-05-16T13:43:01.552Z,25.72
2023-05-16T13:45:28.795Z,25.71
2023-05-16T13:47:55.726Z,25.70
2023-05-16T13:50:22.641Z,25.72
2023-05-16T13:52:49.337Z,25.72
2023-05-16T13:55:19.179Z,25.71
2023-05-16T13:57:45.848Z,25.76
2023-05-16T14:02:42.766Z,25.79
2023-05-16T14:05:10.050Z,25.74
2023-05-16T14:07:36.917Z,25.85
2023-05-16T14:10:04.328Z,25.85
2023-05-16T14:12:31.196Z,25.86
2023-05-16T14:14:57.861Z,25.83
2023-05-16T14:17:24.591Z,25.85
2023-05-16T14:19:51.329Z,25.88
2023-05-16T14:22:18.917Z,25.90
2023-05-16T14:24:45.729Z,25.89
2023-05-16T14:27:12.642Z,25.81
2023-05-16T14:29:39.341Z,25.90
2023-05-16T14:32:06.180Z,25.96
2023-05-16T14:34:33.646Z,25.93
2023-05-16T14:37:01.102Z,25.87
2023-05-16T14:39:27.969Z,25.95
2023-05-16T14:41:54.612Z,25.97
2023-05-16T14:44:24.628Z,25.97
2023-05-16T14:46:51.775Z,25.94
2023-05-16T14:49:18.460Z,25.85
2023-05-16T14:51:49.473Z,25.94
2023-05-16T14:54:17.096Z,25.97
2023-05-16T14:56:44.512Z,25.94
2023-05-16T14:59:11.178Z,25.92
2023-05-16T15:01:37.856Z,25.90
2023-05-16T15:04:04.832Z,25.95
2023-05-16T15:06:31.495Z,25.91
2023-05-16T15:08:58.240Z,25.95
2023-05-16T15:11:25.004Z,25.98
2023-05-16T15:13:51.634Z,25.98
2023-05-16T15:16:18.418Z,25.99
2023-05-16T15:18:45.322Z,26.00
2023-05-16T15:21:12.486Z,26.00
2023-05-16T15:23:39.170Z,25.97
2023-05-16T15:26:06.361Z,26.00
2023-05-16T15:28:33.066Z,25.99
2023-05-16T15:30:59.704Z,25.91
2023-05-16T15:33:26.416Z,26.00
2023-05-16T15:35:53.085Z,26.01
2023-05-16T15:38:19.859Z,26.03
2023-05-16T15:40:47.074Z,25.96
2023-05-16T15:43:15.767Z,26.09
2023-05-16T15:45:43.753Z,25.96
2023-05-16T15:48:10.572Z,25.93
2023-05-16T15:50:37.267Z,25.78
2023-05-16T15:53:04.100Z,25.67
2023-05-16T15:55:31.648Z,25.60
2023-05-16T15:57:59.575Z,25.48
2023-05-16T16:00:26.747Z,25.46
2023-05-16T16:02:53.610Z,25.47
2023-05-16T16:05:20.609Z,25.45
2023-05-16T16:07:47.306Z,25.38
2023-05-16T16:10:14.575Z,25.41
2023-05-16T16:12:41.701Z,25.37
2023-05-16T16:15:10.391Z,25.50
2023-05-16T16:17:37.144Z,25.33
2023-05-16T16:20:04.104Z,25.28
2023-05-16T16:22:30.906Z,25.19
2023-05-16T16:24:57.723Z,25.23
2023-05-16T16:27:24.765Z,25.23
2023-05-16T16:29:52.266Z,25.24
2023-05-16T16:32:19.062Z,25.17
2023-05-16T16:34:45.729Z,25.14
2023-05-16T16:37:12.551Z,25.22
2023-05-16T16:39:39.262Z,25.23
2023-05-16T16:42:06.517Z,25.20
2023-05-16T16:44:33.171Z,25.24
2023-05-16T16:46:59.906Z,25.24
2023-05-16T16:49:26.871Z,25.16
2023-05-16T16:51:53.556Z,25.28
2023-05-16T16:54:22.360Z,25.25
2023-05-16T16:56:49.652Z,25.30
2023-05-16T16:59:16.654Z,25.24
2023-05-16T17:01:43.670Z,25.39
2023-05-16T17:04:10.588Z,25.39
2023-05-16T17:06:37.256Z,25.44
2023-05-16T17:09:06.785Z,25.45
2023-05-16T17:11:36.313Z,25.49
2023-05-16T17:14:05.918Z,25.51
2023-05-16T17:16:33.113Z,25.54
2023-05-16T17:19:00.076Z,25.56
2023-05-16T17:21:27.116Z,25.57
2023-05-16T17:23:54.321Z,25.59
2023-05-16T17:26:21.031Z,25.63
2023-05-16T17:28:49.236Z,25.63
2023-05-16T17:31:16.064Z,25.64
2023-05-16T17:33:43.009Z,25.65
2023-05-16T17:36:09.678Z,25.61
2023-05-16T17:38:36.460Z,25.55
2023-05-16T17:41:03.211Z,25.65
2023-05-16T17:43:30.107Z,25.65
2023-05-16T17:45:57.032Z,25.67
2023-05-16T17:48:23.802Z,25.62
2023-05-16T17:50:50.532Z,25.65
2023-05-16T17:53:17.271Z,25.62
2023-05-16T17:55:44.184Z,25.69
2023-05-16T17:58:10.966Z,25.76
2023-05-16T18:00:38.431Z,25.78
2023-05-16T18:03:06.364Z,25.83
2023-05-16T18:05:33.242Z,25.84
2023-05-16T18:07:59.992Z,25.88
2023-05-16T18:10:31.535Z,25.88
2023-05-16T18:13:06.729Z,25.91
2023-05-16T18:15:35.285Z,25.91
2023-05-16T18:18:02.175Z,26.00
2023-05-16T18:20:28.880Z,26.01
2023-05-16T18:22:55.707Z,26.05
2023-05-16T18:25:22.634Z,26.07
2023-05-16T18:27:49.616Z,26.02
2023-05-16T18:30:16.423Z,26.02
2023-05-16T18:32:43.379Z,26.05
2023-05-16T18:35:10.431Z,26.06
2023-05-16T18:37:37.281Z,26.02
2023-05-16T18:40:04.852Z,26.01
2023-05-16T18:42:31.633Z,26.02
2023-05-16T18:44:58.388Z,25.99
2023-05-16T18:47:25.318Z,25.96
2023-05-16T18:49:52.694Z,25.98
2023-05-16T18:52:19.342Z,25.93
2023-05-16T18:54:46.107Z,25.99
2023-05-16T18:57:13.283Z,26.00
2023-05-16T18:59:42.436Z,25.92
2023-05-16T19:02:10.424Z,25.97
2023-05-16T19:04:38.810Z,25.96
2023-05-16T19:07:09.423Z,25.95
2023-05-16T19:09:46.685Z,25.97
2023-05-16T19:12:29.121Z,25.94
2023-05-16T19:14:57.496Z,25.85
2023-05-16T19:17:27.847Z,25.94
2023-05-16T19:19:56.039Z,25.95
2023-05-16T19:22:23.001Z,25.99
2023-05-16T19:24:50.440Z,25.94
2023-05-16T19:27:17.839Z,25.90
2023-05-16T19:29:47.279Z,25.96
2023-05-16T19:32:16.735Z,25.95
2023-05-16T19:34:45.333Z,25.93
2023-05-16T19:37:12.958Z,25.92
2023-05-16T19:39:40.428Z,25.91
2023-05-16T19:42:09.304Z,25.90
2023-05-16T19:44:36.271Z,25.86
2023-05-16T19:47:07.922Z,25.91
2023-05-16T19:49:34.942Z,25.92
2023-05-16T19:52:03.357Z,25.91
2023-05-16T19:54:30.845Z,25.91
2023-05-16T19:56:57.817Z,25.89
2023-05-16T19:59:24.661Z,25.86
2023-05-16T20:01:51.544Z,25.88
2023-05-16T20:04:18.617Z,25.89
2023-05-16T20:06:49.656Z,25.92
2023-05-16T20:09:16.966Z,25.85
2023-05-16T20:11:44.256Z,25.88
2023-05-16T20:14:11.527Z,25.87
2023-05-16T20:16:38.565Z,25.86
2023-05-16T20:19:05.927Z,25.86
2023-05-16T20:21:38.381Z,25.90
2023-05-16T20:24:06.263Z,25.89
2023-05-16T20:26:32.933Z,25.91
2023-05-16T20:28:59.673Z,25.92
2023-05-16T20:31:28.700Z,25.90
2023-05-16T20:33:55.841Z,25.80
2023-05-16T20:36:22.796Z,25.87
2023-05-16T20:38:49.723Z,25.89
2023-05-16T20:41:16.458Z,25.79
2023-05-16T20:43:43.394Z,25.90
2023-05-16T20:46:11.457Z,25.91
2023-05-16T20:48:38.630Z,25.88
2023-05-16T20:51:06.126Z,25.85
2023-05-16T20:53:33.396Z,25.82
2023-05-16T20:56:01.278Z,25.81
2023-05-16T20:58:28.517Z,25.84
2023-05-16T21:00:55.242Z,25.87
2023-05-16T21:03:21.951Z,25.83
2023-05-16T21:05:48.710Z,25.89
2023-05-16T21:08:15.542Z,25.88
2023-05-16T21:10:42.221Z,25.86
2023-05-16T21:13:08.956Z,25.90
2023-05-16T21:15:35.648Z,25.88
2023-05-16T21:18:02.348Z,25.87
2023-05-16T21:20:30.183Z,25.84
2023-05-16T21:22:57.117Z,25.82
2023-05-16T21:25:23.899Z,25.79
2023-05-16T21:27:50.580Z,25.79
2023-05-16T21:30:17.222Z,25.78
2023-05-16T21:32:43.916Z,25.72
2023-05-16T21:35:10.955Z,25.75
2023-05-16T21:37:37.783Z,25.77
2023-05-16T21:40:06.402Z,25.73
2023-05-16T21:42:33.140Z,25.73
2023-05-16T21:44:59.873Z,25.72
2023-05-16T21:47:26.585Z,25.68
2023-05-16T21:49:53.249Z,25.66
2023-05-16T21:52:19.955Z,25.70
2023-05-16T21:54:51.446Z,25.57
2023-05-16T21:57:19.263Z,25.60
2023-05-16T21:59:45.934Z,25.66
2023-05-16T22:02:13.622Z,25.57
2023-05-16T22:04:40.569Z,25.66
2023-05-16T22:07:07.309Z,25.68
2023-05-16T22:09:34.020Z,25.64
2023-05-16T22:12:00.796Z,25.62
2023-05-16T22:14:27.533Z,25.60
2023-05-16T22:16:54.225Z,25.62
2023-05-16T22:19:20.924Z,25.57
2023-05-16T22:21:47.585Z,25.57
2023-05-16T22:24:14.251Z,25.60
2023-05-16T22:26:40.930Z,25.56
2023-05-16T22:29:07.558Z,25.57
2023-05-16T22:31:34.207Z,25.57
2023-05-16T22:34:01.767Z,25.57
2023-05-16T22:36:28.496Z,25.57
2023-05-16T22:38:55.147Z,25.53
2023-05-16T22:41:21.814Z,25.52
2023-05-16T22:43:48.467Z,25.52
2023-05-16T22:46:15.406Z,25.52
2023-05-16T22:48:42.163Z,25.50
2023-05-16T22:51:08.866Z,25.51
2023-05-16T22:53:35.574Z,25.49
2023-05-16T22:56:02.375Z,25.47
2023-05-16T22:58:29.014Z,25.52
2023-05-16T23:00:55.882Z,25.45
2023-05-16T23:03:22.850Z,25.51
2023-05-16T23:05:49.678Z,25.49
2023-05-16T23:08:16.360Z,25.47
2023-05-16T23:10:43.037Z,25.46
2023-05-16T23:13:09.655Z,25.46
2023-05-16T23:15:36.229Z,25.46
2023-05-16T23:18:03.145Z,25.42
2023-05-16T23:20:29.851Z,25.43
2023-05-16T23:22:56.505Z,25.42
2023-05-16T23:25:23.456Z,25.35
2023-05-16T23:27:50.119Z,25.44
2023-05-16T23:30:16.961Z,25.43
2023-05-16T23:32:43.701Z,25.33
2023-05-16T23:35:10.605Z,25.39
2023-05-16T23:37:37.193Z,25.36
2023-05-16T23:40:04.126Z,25.38
2023-05-16T23:42:31.172Z,25.36
2023-05-16T23:44:57.796Z,25.38
2023-05-16T23:47:24.506Z,25.32
2023-05-16T23:49:51.113Z,25.35
2023-05-16T23:52:17.755Z,25.40
2023-05-16T23:54:45.473Z,25.35
2023-05-16T23:57:12.185Z,25.29
2023-05-16T23:59:39.769Z,25.33
